createdAt,value
2018-11-01T00:00:27.346Z,8.09
2018-11-01T00:01:32.673Z,8.24
2018-11-01T00:02:37.085Z,8.23
2018-11-01T00:03:40.091Z,8.34
2018-11-01T00:04:44.333Z,8.59
2018-11-01T00:05:48.081Z,8.76
2018-11-01T00:06:52.098Z,8.72
2018-11-01T00:07:57.243Z,8.50
2018-11-01T00:09:00.514Z,8.60
2018-11-01T00:10:08.443Z,8.46
2018-11-01T00:11:12.494Z,8.11
2018-11-01T00:12:16.454Z,7.78
2018-11-01T00:13:20.274Z,7.61
2018-11-01T00:14:23.022Z,7.81
2018-11-01T00:15:26.604Z,7.91
2018-11-01T00:16:29.870Z,7.89
2018-11-01T00:17:34.238Z,7.82
2018-11-01T00:18:37.472Z,7.93
2018-11-01T00:19:40.687Z,8.17
2018-11-01T00:20:43.654Z,8.30
2018-11-01T00:21:47.430Z,8.35
2018-11-01T00:22:51.809Z,8.25
2018-11-01T00:23:54.629Z,8.07
2018-11-01T00:24:57.981Z,7.97
2018-11-01T00:26:00.773Z,7.91
2018-11-01T00:27:03.571Z,7.88
2018-11-01T00:28:06.638Z,7.92
2018-11-01T00:29:09.789Z,7.93
2018-11-01T00:30:13.621Z,7.94
2018-11-01T00:31:16.698Z,7.82
2018-11-01T00:32:19.869Z,7.65
2018-11-01T00:33:23.007Z,7.53
2018-11-01T00:34:26.067Z,7.46
2018-11-01T00:35:28.948Z,7.37
2018-11-01T00:36:32.060Z,7.31
2018-11-01T00:37:35.225Z,7.26
2018-11-01T00:38:39.452Z,7.18
2018-11-01T00:39:42.817Z,7.16
2018-11-01T00:40:45.973Z,7.13
2018-11-01T00:41:48.927Z,7.12
2018-11-01T00:42:52.221Z,7.14
2018-11-01T00:43:56.714Z,7.27
2018-11-01T00:45:04.054Z,7.42
2018-11-01T00:46:08.320Z,7.43
2018-11-01T00:47:13.794Z,7.35
2018-11-01T00:48:17.663Z,7.35
2018-11-01T00:49:21.264Z,7.27
2018-11-01T00:50:23.983Z,7.17
2018-11-01T00:51:26.674Z,7.03
2018-11-01T00:52:30.296Z,6.83
2018-11-01T00:53:33.102Z,6.77
2018-11-01T00:54:35.915Z,6.76
2018-11-01T00:55:39.034Z,6.82
2018-11-01T00:56:41.843Z,6.70
2018-11-01T00:57:44.884Z,6.57
2018-11-01T00:58:49.045Z,6.61
2018-11-01T00:59:52.243Z,6.61
2018-11-01T01:00:55.005Z,6.60
2018-11-01T01:01:58.048Z,6.55
2018-11-01T01:03:00.807Z,6.55
2018-11-01T01:04:03.576Z,6.61
2018-11-01T01:05:06.677Z,6.67
2018-11-01T01:06:09.655Z,6.70
2018-11-01T01:07:12.938Z,6.71
2018-11-01T01:08:15.726Z,6.70
2018-11-01T01:09:18.458Z,6.74
2018-11-01T01:10:21.860Z,6.70
2018-11-01T01:11:25.404Z,6.70
2018-11-01T01:12:29.902Z,6.69
2018-11-01T01:13:33.424Z,6.62
2018-11-01T01:14:36.772Z,6.54
2018-11-01T01:15:40.156Z,6.65
2018-11-01T01:16:44.626Z,6.66
2018-11-01T01:17:47.692Z,6.69
2018-11-01T01:18:52.885Z,6.67
2018-11-01T01:19:55.798Z,6.78
2018-11-01T01:20:58.618Z,6.71
2018-11-01T01:22:02.317Z,7.12
2018-11-01T01:23:06.348Z,7.35
2018-11-01T01:24:11.115Z,7.29
2018-11-01T01:25:16.212Z,6.91
2018-11-01T01:26:19.258Z,6.77
2018-11-01T01:27:23.564Z,6.74
2018-11-01T01:28:26.362Z,6.79
2018-11-01T01:29:30.581Z,6.68
2018-11-01T01:30:37.942Z,6.58
2018-11-01T01:33:00.975Z,6.72
2018-11-01T01:34:04.665Z,6.71
2018-11-01T01:35:09.212Z,6.99
2018-11-01T01:36:13.421Z,7.54
2018-11-01T01:37:16.589Z,7.54
2018-11-01T01:38:21.196Z,7.36
2018-11-01T01:39:23.918Z,7.10
2018-11-01T01:40:26.779Z,6.88
2018-11-01T01:41:29.617Z,6.69
2018-11-01T01:42:44.601Z,6.38
2018-11-01T01:43:47.783Z,6.30
2018-11-01T01:44:50.575Z,6.34
2018-11-01T01:45:54.200Z,6.30
2018-11-01T01:46:57.027Z,6.37
2018-11-01T01:48:00.011Z,6.56
2018-11-01T01:49:03.083Z,6.78
2018-11-01T01:50:06.022Z,6.93
2018-11-01T01:51:11.084Z,6.91
2018-11-01T01:52:17.503Z,6.85
2018-11-01T01:53:21.291Z,6.94
2018-11-01T01:54:24.013Z,7.08
2018-11-01T01:55:27.279Z,7.05
2018-11-01T01:56:30.234Z,6.88
2018-11-01T01:57:33.047Z,6.53
2018-11-01T01:58:36.589Z,6.23
2018-11-01T01:59:40.349Z,6.05
2018-11-01T02:00:43.137Z,5.95
2018-11-01T02:01:46.241Z,5.89
2018-11-01T02:02:50.230Z,5.85
2018-11-01T02:03:53.784Z,5.88
2018-11-01T02:04:58.494Z,5.87
2018-11-01T02:06:06.773Z,5.87
2018-11-01T02:07:12.454Z,5.93
2018-11-01T02:08:16.424Z,5.93
2018-11-01T02:09:21.270Z,5.94
2018-11-01T02:10:23.986Z,5.99
2018-11-01T02:11:27.261Z,6.07
2018-11-01T02:12:30.067Z,6.25
2018-11-01T02:19:03.770Z,6.42
2018-11-01T02:20:06.520Z,6.05
2018-11-01T02:21:09.485Z,5.85
2018-11-01T02:22:13.588Z,5.78
2018-11-01T02:23:17.147Z,5.98
2018-11-01T02:24:22.652Z,6.09
2018-11-01T02:25:26.458Z,6.08
2018-11-01T02:26:30.512Z,5.80
2018-11-01T02:27:38.340Z,5.90
2018-11-01T02:28:41.218Z,5.93
2018-11-01T02:29:44.967Z,5.85
2018-11-01T02:31:02.567Z,5.84
2018-11-01T02:32:06.779Z,5.93
2018-11-01T02:33:09.812Z,6.00
2018-11-01T02:34:13.186Z,6.00
2018-11-01T02:35:17.304Z,5.92
2018-11-01T02:36:20.844Z,5.83
2018-11-01T02:37:24.459Z,5.87
2018-11-01T02:38:28.258Z,5.88
2018-11-01T02:39:31.635Z,5.83
2018-11-01T02:40:34.429Z,5.71
2018-11-01T02:41:43.508Z,5.65
2018-11-01T02:42:46.934Z,5.67
2018-11-01T02:43:49.806Z,5.74
2018-11-01T02:44:53.602Z,5.75
2018-11-01T02:45:57.266Z,5.76
2018-11-01T02:47:00.004Z,5.73
2018-11-01T02:48:02.791Z,5.66
2018-11-01T02:49:06.009Z,5.69
2018-11-01T02:50:10.067Z,5.65
2018-11-01T02:51:13.063Z,5.75
2018-11-01T02:52:16.985Z,5.83
2018-11-01T02:53:19.776Z,5.85
2018-11-01T02:54:22.696Z,5.75
2018-11-01T02:55:26.384Z,5.83
2018-11-01T02:56:29.253Z,5.96
2018-11-01T02:57:32.739Z,6.02
2018-11-01T02:58:35.623Z,6.08
2018-11-01T02:59:38.470Z,5.86
2018-11-01T03:00:41.274Z,5.70
2018-11-01T03:01:44.737Z,5.65
2018-11-01T03:02:47.559Z,5.69
2018-11-01T03:03:51.633Z,5.72
2018-11-01T03:04:54.435Z,5.72
2018-11-01T03:05:57.220Z,5.62
2018-11-01T03:07:00.007Z,5.61
2018-11-01T03:08:07.835Z,5.65
2018-11-01T03:09:11.044Z,5.69
2018-11-01T03:10:14.919Z,5.70
2018-11-01T03:11:18.483Z,5.71
2018-11-01T03:12:21.258Z,5.80
2018-11-01T03:13:24.047Z,5.87
2018-11-01T03:14:27.069Z,5.94
2018-11-01T03:15:30.003Z,5.94
2018-11-01T03:16:33.296Z,5.90
2018-11-01T03:17:36.124Z,5.80
2018-11-01T03:18:39.172Z,5.78
2018-11-01T03:19:41.984Z,5.85
2018-11-01T03:20:45.017Z,5.76
2018-11-01T03:21:47.811Z,5.24
2018-11-01T03:22:51.560Z,5.41
2018-11-01T03:23:54.354Z,5.68
2018-11-01T03:24:57.118Z,5.80
2018-11-01T03:26:00.683Z,5.95
2018-11-01T03:27:03.772Z,6.04
2018-11-01T03:28:06.546Z,6.10
2018-11-01T03:29:09.313Z,6.19
2018-11-01T03:30:13.030Z,6.29
2018-11-01T03:31:17.219Z,6.31
2018-11-01T03:32:19.980Z,6.29
2018-11-01T03:33:23.031Z,6.22
2018-11-01T03:34:26.036Z,6.21
2018-11-01T03:35:28.899Z,6.10
2018-11-01T03:36:31.667Z,5.99
2018-11-01T03:37:34.525Z,5.94
2018-11-01T03:38:37.380Z,5.79
2018-11-01T03:39:40.220Z,5.84
2018-11-01T03:40:44.020Z,5.81
2018-11-01T03:41:47.465Z,5.68
2018-11-01T03:42:50.303Z,5.80
2018-11-01T03:43:53.085Z,5.84
2018-11-01T03:44:55.820Z,5.80
2018-11-01T03:45:59.003Z,5.90
2018-11-01T03:47:02.519Z,6.00
2018-11-01T03:48:05.323Z,6.11
2018-11-01T03:49:08.243Z,6.16
2018-11-01T03:50:11.378Z,6.23
2018-11-01T03:51:14.156Z,6.21
2018-11-01T03:52:17.221Z,6.35
2018-11-01T03:53:19.999Z,6.51
2018-11-01T03:54:22.859Z,6.49
2018-11-01T03:55:26.397Z,6.45
2018-11-01T03:56:29.243Z,6.40
2018-11-01T03:57:32.007Z,6.53
2018-11-01T03:58:35.380Z,6.56
2018-11-01T03:59:38.319Z,6.51
2018-11-01T04:00:41.204Z,6.50
2018-11-01T04:01:44.007Z,6.54
2018-11-01T04:02:48.436Z,6.69
2018-11-01T04:03:51.286Z,6.69
2018-11-01T04:04:54.343Z,6.60
2018-11-01T04:05:57.106Z,6.56
2018-11-01T04:07:01.434Z,6.60
2018-11-01T04:08:04.452Z,6.74
2018-11-01T04:09:07.273Z,6.90
2018-11-01T04:10:10.780Z,7.05
2018-11-01T04:11:13.847Z,7.03
2018-11-01T04:12:17.755Z,7.03
2018-11-01T04:13:20.628Z,7.11
2018-11-01T04:14:23.400Z,7.12
2018-11-01T04:15:26.224Z,7.06
2018-11-01T04:16:28.999Z,6.96
2018-11-01T04:17:32.123Z,6.86
2018-11-01T04:18:35.887Z,6.80
2018-11-01T04:19:39.647Z,6.82
2018-11-01T04:20:42.423Z,6.73
2018-11-01T04:21:45.263Z,6.64
2018-11-01T04:22:54.670Z,6.60
2018-11-01T04:23:57.466Z,6.56
2018-11-01T04:25:00.277Z,6.25
2018-11-01T04:26:03.021Z,6.15
2018-11-01T04:27:06.041Z,6.26
2018-11-01T04:28:08.874Z,6.16
2018-11-01T04:29:11.998Z,6.00
2018-11-01T04:30:14.762Z,6.15
2018-11-01T04:31:18.274Z,6.20
2018-11-01T04:32:21.307Z,6.07
2018-11-01T04:33:24.113Z,6.07
2018-11-01T04:34:26.860Z,6.20
2018-11-01T04:35:31.074Z,6.17
2018-11-01T04:36:33.851Z,6.02
2018-11-01T04:37:37.540Z,6.25
2018-11-01T04:38:40.330Z,6.21
2018-11-01T04:39:43.934Z,5.75
2018-11-01T04:40:46.778Z,5.84
2018-11-01T04:41:49.796Z,5.98
2018-11-01T04:42:52.631Z,5.96
2018-11-01T04:43:55.799Z,5.92
2018-11-01T04:44:59.183Z,5.87
2018-11-01T04:46:01.974Z,5.95
2018-11-01T04:47:04.762Z,5.94
2018-11-01T04:48:07.950Z,5.90
2018-11-01T04:49:10.737Z,5.81
2018-11-01T04:50:14.380Z,5.50
2018-11-01T04:51:17.265Z,5.41
2018-11-01T04:52:20.044Z,5.38
2018-11-01T04:53:22.858Z,5.48
2018-11-01T04:54:31.486Z,5.62
2018-11-01T04:55:34.239Z,5.77
2018-11-01T04:56:37.089Z,5.98
2018-11-01T04:57:40.460Z,6.00
2018-11-01T04:58:43.204Z,5.96
2018-11-01T04:59:45.954Z,5.93
2018-11-01T05:00:49.161Z,5.88
2018-11-01T05:01:52.026Z,5.70
2018-11-01T05:02:56.531Z,5.62
2018-11-01T05:03:59.303Z,5.61
2018-11-01T05:05:02.259Z,5.57
2018-11-01T05:06:05.134Z,5.54
2018-11-01T05:07:08.529Z,5.48
2018-11-01T05:08:11.300Z,5.37
2018-11-01T05:09:15.072Z,5.25
2018-11-01T05:10:17.830Z,5.08
2018-11-01T05:11:20.757Z,4.96
2018-11-01T05:12:23.525Z,4.78
2018-11-01T05:13:26.927Z,4.71
2018-11-01T05:14:29.715Z,4.73
2018-11-01T05:15:32.471Z,4.86
2018-11-01T05:16:35.482Z,4.95
2018-11-01T05:17:38.420Z,4.95
2018-11-01T05:18:41.549Z,4.92
2018-11-01T05:19:44.845Z,4.92
2018-11-01T05:20:47.604Z,4.78
2018-11-01T05:21:50.359Z,4.79
2018-11-01T05:22:53.113Z,4.80
2018-11-01T05:23:55.932Z,4.84
2018-11-01T05:24:58.701Z,4.88
2018-11-01T05:26:05.567Z,4.80
2018-11-01T05:27:09.327Z,4.74
2018-11-01T05:28:12.166Z,4.81
2018-11-01T05:29:15.960Z,4.89
2018-11-01T05:30:22.015Z,4.87
2018-11-01T05:31:24.786Z,4.96
2018-11-01T05:32:28.841Z,4.98
2018-11-01T05:33:31.605Z,5.07
2018-11-01T05:34:34.393Z,5.10
2018-11-01T05:35:37.252Z,4.76
2018-11-01T05:36:40.053Z,4.75
2018-11-01T05:37:42.814Z,4.71
2018-11-01T05:38:45.964Z,4.58
2018-11-01T05:39:48.758Z,4.60
2018-11-01T05:40:51.525Z,4.62
2018-11-01T05:41:54.345Z,4.65
2018-11-01T05:42:57.361Z,4.46
2018-11-01T05:44:00.445Z,4.24
2018-11-01T05:45:04.656Z,4.22
2018-11-01T05:46:08.991Z,4.30
2018-11-01T05:47:11.764Z,4.22
2018-11-01T05:48:14.524Z,4.17
2018-11-01T05:49:17.277Z,4.13
2018-11-01T05:50:20.046Z,4.17
2018-11-01T05:51:23.096Z,4.25
2018-11-01T05:52:25.920Z,4.37
2018-11-01T05:53:28.692Z,4.53
2018-11-01T05:54:31.457Z,4.83
2018-11-01T05:55:34.224Z,4.88
2018-11-01T05:56:38.388Z,4.85
2018-11-01T05:57:44.975Z,4.72
2018-11-01T05:58:47.736Z,4.62
2018-11-01T05:59:50.550Z,4.58
2018-11-01T06:00:54.420Z,4.59
2018-11-01T06:01:59.568Z,4.56
2018-11-01T06:03:02.339Z,4.55
2018-11-01T06:04:06.091Z,4.53
2018-11-01T06:05:09.557Z,4.45
2018-11-01T06:06:12.303Z,4.45
2018-11-01T06:07:15.861Z,4.46
2018-11-01T06:08:21.567Z,4.49
2018-11-01T06:09:29.233Z,4.52
2018-11-01T06:10:32.271Z,4.52
2018-11-01T06:11:35.038Z,4.54
2018-11-01T06:12:37.940Z,4.58
2018-11-01T06:13:40.780Z,4.65
2018-11-01T06:14:43.583Z,4.70
2018-11-01T06:15:46.361Z,4.68
2018-11-01T06:16:49.505Z,4.71
2018-11-01T06:17:52.297Z,4.65
2018-11-01T06:18:55.052Z,4.57
2018-11-01T06:19:58.387Z,4.50
2018-11-01T06:21:01.136Z,4.46
2018-11-01T06:22:04.939Z,4.46
2018-11-01T06:23:09.494Z,4.52
2018-11-01T06:24:12.244Z,4.48
2018-11-01T06:25:15.026Z,4.51
2018-11-01T06:26:18.614Z,4.49
2018-11-01T06:27:21.416Z,4.49
2018-11-01T06:28:24.226Z,4.47
2018-11-01T06:29:27.336Z,4.50
2018-11-01T06:30:30.192Z,4.49
2018-11-01T06:45:19.757Z,4.13
2018-11-01T06:46:22.576Z,4.10
2018-11-01T06:47:26.011Z,4.08
2018-11-01T06:48:29.601Z,3.90
2018-11-01T06:49:32.391Z,3.95
2018-11-01T06:50:35.476Z,3.97
2018-11-01T06:51:38.289Z,4.10
2018-11-01T06:52:41.937Z,4.14
2018-11-01T06:53:44.704Z,4.26
2018-11-01T06:54:47.489Z,4.31
2018-11-01T06:55:50.257Z,4.32
2018-11-01T06:56:53.351Z,4.30
2018-11-01T06:57:56.145Z,4.27
2018-11-01T06:58:59.028Z,4.15
2018-11-01T07:00:02.490Z,4.07
2018-11-01T07:01:05.237Z,4.11
2018-11-01T07:02:07.986Z,4.17
2018-11-01T07:03:11.055Z,4.22
2018-11-01T07:04:13.759Z,4.20
2018-11-01T07:05:16.527Z,4.08
2018-11-01T07:06:19.334Z,4.17
2018-11-01T07:07:23.604Z,4.17
2018-11-01T07:08:26.427Z,4.07
2018-11-01T07:09:29.523Z,3.97
2018-11-01T07:10:33.433Z,3.96
2018-11-01T07:11:36.323Z,4.00
2018-11-01T07:12:39.095Z,4.07
2018-11-01T07:13:41.875Z,4.21
2018-11-01T07:14:44.740Z,4.25
2018-11-01T07:15:47.815Z,4.19
2018-11-01T07:16:50.621Z,4.23
2018-11-01T07:17:54.704Z,4.18
2018-11-01T07:18:57.682Z,4.18
2018-11-01T07:20:00.458Z,4.29
2018-11-01T07:21:03.243Z,4.20
2018-11-01T07:22:06.364Z,4.25
2018-11-01T07:23:09.865Z,4.34
2018-11-01T07:24:14.405Z,4.38
2018-11-01T07:25:19.596Z,4.41
2018-11-01T07:26:24.087Z,4.46
2018-11-01T07:27:26.829Z,4.57
2018-11-01T07:28:30.573Z,4.67
2018-11-01T07:29:34.612Z,4.73
2018-11-01T07:30:39.199Z,4.78
2018-11-01T07:31:42.622Z,4.77
2018-11-01T07:32:45.535Z,4.70
2018-11-01T07:33:48.230Z,4.70
2018-11-01T07:34:51.343Z,4.69
2018-11-01T07:35:54.135Z,4.70
2018-11-01T07:36:58.068Z,4.63
2018-11-01T07:38:02.535Z,4.64
2018-11-01T07:39:06.031Z,4.69
2018-11-01T07:40:09.462Z,4.67
2018-11-01T07:41:15.502Z,4.56
2018-11-01T07:42:18.401Z,4.55
2018-11-01T07:43:22.308Z,4.67
2018-11-01T07:44:25.064Z,4.86
2018-11-01T07:45:27.808Z,4.94
2018-11-01T07:46:30.565Z,4.99
2018-11-01T07:47:33.610Z,5.02
2018-11-01T07:48:36.674Z,5.06
2018-11-01T07:49:39.463Z,5.12
2018-11-01T07:50:42.263Z,5.17
2018-11-01T07:51:45.090Z,5.15
2018-11-01T07:52:48.910Z,5.19
2018-11-01T07:53:53.059Z,5.21
2018-11-01T07:54:55.889Z,5.23
2018-11-01T07:55:58.959Z,5.16
2018-11-01T07:57:01.744Z,5.19
2018-11-01T07:58:04.479Z,5.25
2018-11-01T07:59:11.052Z,5.27
2018-11-01T08:00:16.201Z,5.23
2018-11-01T08:01:24.433Z,5.20
2018-11-01T08:02:27.243Z,5.07
2018-11-01T08:03:30.287Z,4.98
2018-11-01T08:04:33.032Z,4.91
2018-11-01T08:05:35.857Z,4.87
2018-11-01T08:06:39.830Z,4.91
2018-11-01T08:07:43.686Z,4.88
2018-11-01T08:08:46.812Z,4.90
2018-11-01T08:09:49.608Z,4.98
2018-11-01T08:10:52.373Z,5.01
2018-11-01T08:11:55.155Z,4.97
2018-11-01T08:12:58.889Z,4.94
2018-11-01T08:14:02.469Z,4.94
2018-11-01T08:15:05.793Z,4.99
2018-11-01T08:16:08.998Z,5.11
2018-11-01T08:17:12.423Z,5.26
2018-11-01T08:18:16.432Z,5.36
2018-11-01T08:19:23.690Z,5.32
2018-11-01T08:20:26.903Z,5.30
2018-11-01T08:21:31.702Z,5.32
2018-11-01T08:22:36.403Z,5.35
2018-11-01T08:23:41.615Z,5.31
2018-11-01T08:24:44.702Z,5.38
2018-11-01T08:25:50.381Z,5.34
2018-11-01T08:26:54.548Z,5.30
2018-11-01T08:27:57.368Z,5.28
2018-11-01T08:29:00.209Z,5.33
2018-11-01T08:30:03.007Z,5.33
2018-11-01T08:31:06.448Z,5.33
2018-11-01T08:32:10.705Z,5.33
2018-11-01T08:33:15.644Z,5.39
2018-11-01T08:34:25.525Z,5.41
2018-11-01T08:35:28.347Z,5.42
2018-11-01T08:36:32.283Z,5.44
2018-11-01T08:37:35.133Z,5.44
2018-11-01T08:38:38.345Z,5.49
2018-11-01T08:39:44.400Z,5.50
2018-11-01T08:40:47.263Z,5.47
2018-11-01T08:41:50.094Z,5.55
2018-11-01T08:42:53.644Z,5.65
2018-11-01T08:43:56.433Z,5.71
2018-11-01T08:44:59.686Z,5.73
2018-11-01T08:46:03.484Z,5.78
2018-11-01T08:47:06.263Z,5.81
2018-11-01T08:48:09.682Z,5.82
2018-11-01T08:49:15.740Z,5.84
2018-11-01T08:50:18.550Z,5.86
2018-11-01T08:51:22.841Z,5.86
2018-11-01T08:52:25.882Z,5.85
2018-11-01T08:53:28.942Z,5.84
2018-11-01T08:54:32.053Z,5.81
2018-11-01T08:55:35.297Z,5.86
2018-11-01T08:56:38.172Z,5.88
2018-11-01T08:57:42.369Z,5.93
2018-11-01T08:58:45.169Z,5.90
2018-11-01T08:59:48.069Z,5.91
2018-11-01T09:00:50.998Z,5.95
2018-11-01T09:01:55.117Z,5.97
2018-11-01T09:02:58.952Z,5.99
2018-11-01T09:04:16.521Z,6.03
2018-11-01T09:05:19.390Z,6.08
2018-11-01T09:06:24.628Z,6.11
2018-11-01T09:07:28.279Z,6.19
2018-11-01T09:08:35.666Z,6.23
2018-11-01T09:10:49.220Z,6.31
2018-11-01T09:11:53.215Z,6.39
2018-11-01T09:12:56.746Z,6.44
2018-11-01T09:13:59.402Z,6.42
2018-11-01T09:15:02.201Z,6.46
2018-11-01T09:16:04.964Z,6.50
2018-11-01T09:17:09.636Z,6.50
2018-11-01T09:18:12.688Z,6.54
2018-11-01T09:19:16.803Z,6.56
2018-11-01T09:20:19.639Z,6.55
2018-11-01T09:21:22.525Z,6.56
2018-11-01T09:22:25.485Z,6.55
2018-11-01T09:23:28.961Z,6.59
2018-11-01T09:24:31.834Z,6.57
2018-11-01T09:25:34.916Z,6.53
2018-11-01T09:26:37.914Z,6.50
2018-11-01T09:27:41.001Z,6.51
2018-11-01T09:28:44.833Z,6.51
2018-11-01T09:29:58.173Z,6.43
2018-11-01T09:31:01.905Z,6.27
2018-11-01T09:32:04.702Z,6.29
2018-11-01T09:33:07.865Z,6.27
2018-11-01T09:34:13.280Z,6.18
2018-11-01T09:35:16.318Z,6.28
2018-11-01T09:36:20.129Z,6.32
2018-11-01T09:37:28.499Z,6.41
2018-11-01T09:38:32.043Z,6.45
2018-11-01T09:39:35.961Z,6.49
2018-11-01T09:40:39.059Z,6.49
2018-11-01T09:41:42.274Z,6.51
2018-11-01T09:42:46.154Z,6.58
2018-11-01T09:43:50.756Z,6.64
2018-11-01T09:44:53.991Z,6.70
2018-11-01T09:46:01.182Z,6.78
2018-11-01T09:47:05.317Z,6.77
2018-11-01T09:48:08.224Z,6.81
2018-11-01T09:49:13.451Z,6.76
2018-11-01T09:50:16.838Z,6.67
2018-11-01T09:51:20.899Z,6.66
2018-11-01T09:52:24.756Z,6.53
2018-11-01T09:53:27.656Z,6.56
2018-11-01T09:54:35.674Z,6.65
2018-11-01T09:55:40.238Z,6.70
2018-11-01T09:56:43.089Z,6.77
2018-11-01T09:57:45.911Z,6.83
2018-11-01T09:58:49.794Z,6.79
2018-11-01T09:59:54.570Z,6.77
2018-11-01T10:00:58.373Z,6.79
2018-11-01T10:02:02.365Z,6.78
2018-11-01T10:03:06.679Z,6.69
2018-11-01T10:04:11.131Z,6.63
2018-11-01T10:05:18.418Z,6.67
2018-11-01T10:06:23.360Z,6.63
2018-11-01T10:07:26.843Z,6.61
2018-11-01T10:08:31.229Z,6.58
2018-11-01T10:09:34.047Z,6.47
2018-11-01T10:10:37.172Z,6.55
2018-11-01T10:11:41.667Z,6.53
2018-11-01T10:12:47.748Z,6.55
2018-11-01T10:13:51.744Z,6.61
2018-11-01T10:14:56.265Z,6.57
2018-11-01T10:15:59.349Z,6.52
2018-11-01T10:17:02.856Z,6.40
2018-11-01T10:18:05.960Z,6.50
2018-11-01T10:19:14.119Z,6.60
2018-11-01T10:20:17.054Z,6.69
2018-11-01T10:21:20.771Z,6.76
2018-11-01T10:22:23.715Z,6.80
2018-11-01T10:23:27.172Z,6.71
2018-11-01T10:24:30.479Z,6.67
2018-11-01T10:25:35.926Z,6.66
2018-11-01T10:26:40.516Z,6.72
2018-11-01T10:27:43.753Z,6.80
2018-11-01T10:28:47.109Z,6.91
2018-11-01T10:29:50.695Z,6.96
2018-11-01T10:30:56.079Z,6.99
2018-11-01T10:31:59.828Z,7.05
2018-11-01T10:33:03.551Z,7.05
2018-11-01T10:34:07.908Z,7.07
2018-11-01T10:35:10.897Z,7.12
2018-11-01T10:36:14.167Z,7.18
2018-11-01T10:37:17.140Z,7.25
2018-11-01T10:38:20.912Z,7.31
2018-11-01T10:39:24.779Z,7.40
2018-11-01T10:40:28.555Z,7.43
2018-11-01T10:41:31.382Z,7.47
2018-11-01T10:42:34.891Z,7.53
2018-11-01T10:43:38.715Z,7.53
2018-11-01T10:44:42.074Z,7.61
2018-11-01T10:45:45.419Z,7.58
2018-11-01T10:46:51.629Z,7.54
2018-11-01T10:47:56.927Z,7.51
2018-11-01T10:48:59.772Z,7.52
2018-11-01T10:50:04.759Z,7.54
2018-11-01T10:51:07.782Z,7.53
2018-11-01T10:52:11.034Z,7.51
2018-11-01T10:53:18.661Z,7.55
2018-11-01T10:54:21.687Z,7.61
2018-11-01T10:55:25.791Z,7.65
2018-11-01T10:56:29.273Z,7.70
2018-11-01T10:57:32.235Z,7.43
2018-11-01T10:58:35.094Z,7.02
2018-11-01T10:59:44.502Z,6.93
2018-11-01T11:00:53.691Z,7.10
2018-11-01T11:02:06.261Z,7.23
2018-11-01T11:03:09.943Z,7.34
2018-11-01T11:04:14.266Z,7.39
2018-11-01T11:05:21.498Z,7.40
2018-11-01T11:06:29.319Z,7.45
2018-11-01T11:07:33.941Z,7.55
2018-11-01T11:08:40.577Z,7.57
2018-11-01T11:44:29.982Z,7.66
2018-11-01T11:45:33.330Z,7.76
2018-11-01T11:46:40.567Z,7.80
2018-11-01T11:47:45.388Z,7.93
2018-11-01T11:48:50.700Z,8.02
2018-11-01T11:49:55.544Z,8.05
2018-11-01T11:50:58.838Z,8.17
2018-11-01T11:52:02.330Z,8.31
2018-11-01T11:53:05.505Z,8.40
2018-11-01T11:54:08.800Z,8.43
2018-11-01T11:55:12.562Z,8.43
2018-11-01T11:56:16.634Z,8.53
2018-11-01T11:57:19.429Z,8.58
2018-11-01T11:58:22.305Z,8.60
2018-11-01T12:00:40.114Z,8.65
2018-11-01T12:01:43.261Z,8.65
2018-11-01T12:02:47.572Z,8.66
2018-11-01T12:03:50.552Z,8.67
2018-11-01T12:04:54.405Z,8.66
2018-11-01T12:05:58.810Z,8.68
2018-11-01T12:07:03.695Z,8.70
2018-11-01T12:08:06.625Z,8.76
2018-11-01T12:09:10.690Z,8.79
2018-11-01T12:10:16.065Z,8.79
2018-11-01T12:11:20.453Z,8.79
2018-11-01T12:12:24.584Z,8.77
2018-11-01T12:58:42.844Z,8.94
2018-11-01T12:59:45.655Z,8.93
2018-11-01T13:00:49.171Z,8.94
2018-11-01T13:01:52.958Z,8.98
2018-11-01T13:02:55.758Z,8.99
2018-11-01T13:03:59.813Z,8.96
2018-11-01T13:05:06.740Z,8.96
2018-11-01T13:06:09.516Z,8.97
2018-11-01T13:07:13.297Z,8.99
2018-11-01T13:08:16.236Z,9.01
2018-11-01T13:09:19.629Z,8.97
2018-11-01T13:10:23.187Z,8.96
2018-11-01T13:11:26.330Z,8.99
2018-11-01T13:12:30.374Z,9.01
2018-11-01T13:13:33.865Z,8.99
2018-11-01T13:14:37.085Z,8.97
2018-11-01T13:15:39.914Z,8.94
2018-11-01T13:16:43.335Z,8.95
2018-11-01T13:17:48.099Z,8.92
2018-11-01T13:18:52.485Z,8.86
2018-11-01T13:19:56.453Z,8.80
2018-11-01T13:21:02.773Z,8.81
2018-11-01T13:22:06.308Z,8.83
2018-11-01T13:23:09.860Z,8.89
2018-11-01T13:24:13.856Z,8.94
2018-11-01T13:25:17.354Z,8.95
2018-11-01T13:26:21.313Z,8.97
2018-11-01T13:27:25.842Z,9.01
2018-11-01T13:28:29.201Z,9.02
2018-11-01T13:29:32.194Z,8.99
2018-11-01T13:30:35.462Z,8.99
2018-11-01T13:31:38.308Z,9.04
2018-11-01T13:32:42.069Z,9.11
2018-11-01T13:33:46.514Z,9.10
2018-11-01T13:34:49.355Z,9.11
2018-11-01T13:35:53.714Z,9.11
2018-11-01T13:36:57.440Z,9.13
2018-11-01T13:38:01.646Z,9.11
2018-11-01T13:39:05.671Z,9.12
2018-11-01T13:40:10.102Z,9.16
2018-11-01T13:41:13.691Z,9.18
2018-11-01T13:42:17.227Z,9.20
2018-11-01T13:43:20.277Z,9.20
2018-11-01T13:44:26.970Z,9.16
2018-11-01T13:45:29.783Z,9.12
2018-11-01T13:46:34.403Z,9.09
2018-11-01T13:47:37.442Z,9.04
2018-11-01T13:48:40.566Z,9.02
2018-11-01T13:49:43.629Z,9.01
2018-11-01T13:50:50.551Z,9.06
2018-11-01T13:51:57.520Z,9.11
2018-11-01T13:53:05.366Z,9.16
2018-11-01T13:54:10.084Z,9.21
2018-11-01T13:55:14.662Z,9.25
2018-11-01T13:56:21.518Z,9.26
2018-11-01T13:57:27.361Z,9.23
2018-11-01T13:59:43.073Z,9.09
2018-11-01T14:00:45.863Z,8.97
2018-11-01T14:01:49.079Z,8.95
2018-11-01T14:02:55.312Z,8.96
2018-11-01T14:03:59.493Z,8.95
2018-11-01T14:05:02.253Z,8.95
2018-11-01T14:06:05.072Z,8.95
2018-11-01T14:07:08.712Z,8.92
2018-11-01T14:08:13.566Z,8.87
2018-11-01T14:09:17.120Z,8.83
2018-11-01T14:10:20.542Z,8.81
2018-11-01T14:11:23.699Z,8.81
2018-11-01T14:12:26.521Z,8.79
2018-11-01T14:13:29.533Z,8.77
2018-11-01T14:14:32.862Z,8.75
2018-11-01T14:15:35.709Z,8.73
2018-11-01T14:16:38.681Z,8.70
2018-11-01T14:17:43.854Z,8.89
2018-11-01T14:18:52.547Z,8.93
2018-11-01T14:19:55.476Z,8.99
2018-11-01T14:20:58.585Z,8.99
2018-11-01T14:22:01.896Z,8.99
2018-11-01T14:23:09.113Z,8.99
2018-11-01T14:24:13.457Z,8.99
2018-11-01T14:25:17.753Z,8.92
2018-11-01T14:26:21.365Z,8.86
2018-11-01T14:27:27.611Z,8.84
2018-11-01T14:28:31.459Z,8.84
2018-11-01T14:29:35.388Z,8.86
2018-11-01T14:30:38.519Z,8.83
2018-11-01T14:31:42.609Z,8.82
2018-11-01T14:32:47.541Z,8.81
2018-11-01T14:33:51.346Z,8.83
2018-11-01T14:34:55.478Z,8.82
2018-11-01T14:35:59.478Z,8.79
2018-11-01T14:37:02.878Z,8.74
2018-11-01T14:38:07.863Z,8.75
2018-11-01T14:39:12.234Z,8.75
2018-11-01T14:40:16.122Z,8.75
2018-11-01T14:41:20.000Z,8.76
2018-11-01T14:42:23.963Z,8.73
2018-11-01T14:43:26.876Z,8.76
2018-11-01T14:44:29.761Z,8.78
2018-11-01T14:45:33.219Z,8.80
2018-11-01T14:46:36.813Z,8.79
2018-11-01T14:47:42.001Z,8.76
2018-11-01T14:48:45.664Z,8.75
2018-11-01T14:49:48.507Z,8.70
2018-11-01T14:50:51.275Z,8.68
2018-11-01T14:51:54.444Z,8.67
2018-11-01T14:52:57.809Z,8.67
2018-11-01T14:54:02.836Z,8.67
2018-11-01T14:55:07.400Z,8.69
2018-11-01T14:56:10.991Z,8.73
2018-11-01T14:57:16.248Z,8.77
2018-11-01T14:58:18.988Z,8.71
2018-11-01T14:59:22.419Z,8.67
2018-11-01T15:00:23.965Z,8.64
2018-11-01T15:01:27.771Z,8.64
2018-11-01T15:02:32.459Z,8.62
2018-11-01T15:03:35.291Z,8.64
2018-11-01T15:04:39.733Z,8.65
2018-11-01T15:05:44.152Z,8.66
2018-11-01T15:06:49.244Z,8.67
2018-11-01T15:07:52.441Z,8.68
2018-11-01T15:08:55.977Z,8.69
2018-11-01T15:09:59.186Z,8.72
2018-11-01T15:11:03.038Z,8.71
2018-11-01T15:12:06.121Z,8.70
2018-11-01T15:13:09.852Z,8.70
2018-11-01T15:14:12.472Z,8.67
2018-11-01T15:15:15.420Z,8.64
2018-11-01T15:16:18.257Z,8.63
2018-11-01T15:17:23.668Z,8.65
2018-11-01T15:18:26.961Z,8.59
2018-11-01T15:19:30.319Z,8.56
2018-11-01T15:20:35.448Z,8.53
2018-11-01T15:21:38.421Z,8.54
2018-11-01T15:22:41.203Z,8.51
2018-11-01T15:23:44.089Z,8.51
2018-11-01T15:24:46.894Z,8.48
2018-11-01T15:25:51.246Z,8.45
2018-11-01T15:26:54.334Z,8.38
2018-11-01T15:27:57.769Z,8.27
2018-11-01T15:29:02.112Z,8.23
2018-11-01T15:30:06.318Z,8.17
2018-11-01T15:31:12.628Z,8.18
2018-11-01T15:32:21.786Z,8.22
2018-11-01T15:33:25.487Z,8.26
2018-11-01T15:34:28.278Z,8.29
2018-11-01T15:35:31.235Z,8.24
2018-11-01T15:36:34.693Z,8.15
2018-11-01T15:37:37.961Z,8.08
2018-11-01T15:38:42.633Z,8.07
2018-11-01T15:39:46.593Z,8.03
2018-11-01T15:40:54.065Z,8.07
2018-11-01T15:41:58.481Z,8.13
2018-11-01T15:43:02.555Z,8.14
2018-11-01T15:44:06.962Z,8.18
2018-11-01T15:45:12.132Z,8.22
2018-11-01T15:46:14.910Z,8.22
2018-11-01T15:47:20.284Z,8.24
2018-11-01T15:48:23.569Z,8.23
2018-11-01T15:49:26.769Z,8.26
2018-11-01T15:50:30.832Z,8.29
2018-11-01T15:51:34.750Z,8.30
2018-11-01T15:52:40.798Z,8.26